Time;durP1;ratioP1;P1;durP2;ratioP2;P2;SDS_P1;SDS_P2;PMS_P1;PMS_P2;Temp;Humidity;BMP_temperature;BMP_pressure;BME280_temperature;BME280_humidity;BME280_pressure;Samples;Min_cycle;Max_cycle;Signal;HPM_P1;HPM_P2
2022/09/06 00:01:40;;;;;;;0.10;0.10;;;;;;;19.13;71.90;100691.81;5073389;28;20205;-73
2022/09/06 00:04:05;;;;;;;0.00;0.00;;;;;;;19.12;72.11;100693.78;5073188;28;20562;-73
2022/09/06 00:06:30;;;;;;;0.03;0.03;;;;;;;19.10;72.14;100687.03;5073533;28;20171;-73
2022/09/06 00:08:56;;;;;;;0.10;0.10;;;;;;;19.09;72.20;100677.88;5073478;28;20178;-73
2022/09/06 00:11:21;;;;;;;0.17;0.17;;;;;;;19.01;72.63;100676.94;5073355;28;20177;-73
2022/09/06 00:13:47;;;;;;;0.00;0.00;;;;;;;19.01;72.65;100682.47;5073115;28;20597;-74
2022/09/06 00:16:15;;;;;;;0.03;0.00;;;;;;;18.95;72.80;100683.09;5073239;28;20167;-73
2022/09/06 00:18:42;;;;;;;1.67;0.87;;;;;;;18.95;72.86;100686.72;5073189;28;20569;-73
2022/09/06 00:21:19;;;;;;;0.10;0.10;;;;;;;18.89;73.32;100690.91;5073172;28;20177;-73
2022/09/06 00:23:45;;;;;;;0.30;0.30;;;;;;;18.95;73.21;100692.25;5072782;28;20194;-73
2022/09/06 00:26:10;;;;;;;0.13;0.13;;;;;;;18.91;73.24;100709.91;5073133;28;20179;-72
2022/09/06 00:28:36;;;;;;;0.50;0.50;;;;;;;18.92;73.22;100708.75;5073094;28;20253;-73
2022/09/06 00:31:17;;;;;;;0.10;0.10;;;;;;;18.90;73.29;100700.81;5073352;28;20175;-73
2022/09/06 00:33:42;;;;;;;0.33;0.33;;;;;;;18.84;73.27;100693.97;5072717;28;20178;-73
2022/09/06 00:36:09;;;;;;;0.63;0.63;;;;;;;18.84;73.54;100682.09;5073089;28;20185;-73
2022/09/06 00:38:35;;;;;;;0.20;0.20;;;;;;;18.78;73.58;100678.78;5072855;28;20174;-73
2022/09/06 00:41:00;;;;;;;0.17;0.17;;;;;;;18.74;73.64;100686.22;5072297;28;20167;-73
2022/09/06 00:43:26;;;;;;;0.30;0.30;;;;;;;18.68;73.90;100690.44;5072593;28;20252;-73
2022/09/06 00:45:52;;;;;;;0.10;0.10;;;;;;;18.64;74.02;100698.63;5072842;28;20673;-73
2022/09/06 00:48:19;;;;;;;0.33;0.33;;;;;;;18.64;74.26;100700.59;5072768;28;20479;-73
2022/09/06 00:50:47;;;;;;;0.00;0.00;;;;;;;18.70;74.23;100708.28;5071291;28;20551;-73
2022/09/06 00:53:13;;;;;;;0.10;0.10;;;;;;;18.65;74.16;100710.50;5071658;28;20175;-73
2022/09/06 00:55:40;;;;;;;0.23;0.23;;;;;;;18.68;74.08;100707.03;5072229;28;20197;-73
2022/09/06 00:58:06;;;;;;;0.20;0.20;;;;;;;18.68;74.34;100712.56;5072472;28;20594;-73
2022/09/06 01:00:31;;;;;;;0.20;0.20;;;;;;;18.71;74.34;100711.84;5072538;28;20219;-72
2022/09/06 01:02:56;;;;;;;0.20;0.20;;;;;;;18.76;74.32;100716.28;5072520;28;20217;-73
2022/09/06 01:05:34;;;;;;;0.00;0.00;;;;;;;18.76;74.25;100711.56;5072193;28;20258;-73
2022/09/06 01:08:41;;;;;;;0.00;0.00;;;;;;;18.70;74.53;100711.03;5072815;28;20236;-73
2022/09/06 01:11:15;;;;;;;0.10;0.10;;;;;;;18.64;74.69;100718.00;5066320;28;20182;-74
2022/09/06 01:13:47;;;;;;;0.00;0.00;;;;;;;18.55;75.15;100711.03;5072008;28;20412;-73
2022/09/06 01:16:21;;;;;;;0.00;0.00;;;;;;;18.54;75.29;100703.91;5072232;28;20228;-73
2022/09/06 01:18:58;;;;;;;0.00;0.00;;;;;;;18.56;75.22;100718.19;5072440;28;20556;-73
2022/09/06 01:21:45;;;;;;;0.00;0.00;;;;;;;18.53;75.26;100714.16;5072061;28;20170;-73
2022/09/06 01:24:10;;;;;;;0.20;0.20;;;;;;;18.42;76.07;100702.84;5071785;28;20486;-73
2022/09/06 01:26:47;;;;;;;0.00;0.00;;;;;;;18.32;77.76;100694.25;5071997;28;20560;-73
2022/09/06 01:29:29;;;;;;;0.00;0.00;;;;;;;18.13;80.65;100686.69;5072369;28;20174;-73
2022/09/06 01:32:26;;;;;;;0.40;0.40;;;;;;;17.89;84.23;100673.00;5071806;28;20193;-74
2022/09/06 01:35:01;;;;;;;0.77;0.77;;;;;;;17.74;86.37;100664.34;5071599;28;20183;-74
2022/09/06 01:37:27;;;;;;;0.20;0.20;;;;;;;17.76;87.34;100670.31;5071617;28;20174;-74
2022/09/06 01:39:52;;;;;;;0.17;0.17;;;;;;;17.75;88.18;100660.41;5071263;28;20171;-74
2022/09/06 01:42:27;;;;;;;0.07;0.00;;;;;;;17.63;89.29;100651.38;5071568;28;20194;-73
2022/09/06 01:45:01;;;;;;;0.13;0.13;;;;;;;17.55;89.88;100653.16;5071327;28;20170;-74
2022/09/06 01:47:38;;;;;;;0.00;0.00;;;;;;;17.55;91.18;100661.44;5071646;28;20232;-73
2022/09/06 01:50:41;;;;;;;1.50;1.27;;;;;;;17.34;91.65;100649.78;5071540;28;20580;-74
2022/09/06 01:53:24;;;;;;;0.63;0.63;;;;;;;17.17;91.93;100645.38;5071430;28;20205;-73
2022/09/06 01:56:08;;;;;;;0.20;0.20;;;;;;;17.06;92.75;100636.75;5071168;28;20558;-74
2022/09/06 01:58:44;;;;;;;0.30;0.30;;;;;;;17.07;92.91;100640.31;5071383;28;20177;-73
2022/09/06 02:01:17;;;;;;;0.27;0.27;;;;;;;16.98;93.34;100640.50;5069935;28;20512;-74
2022/09/06 02:03:53;;;;;;;0.00;0.00;;;;;;;16.99;93.74;100642.09;5070686;28;20202;-74
2022/09/06 02:06:27;;;;;;;0.00;0.00;;;;;;;16.99;93.86;100644.84;5070627;28;20171;-73
2022/09/06 02:09:01;;;;;;;0.00;0.00;;;;;;;16.99;93.44;100644.84;5071751;28;20471;-74
2022/09/06 02:11:32;;;;;;;0.10;0.10;;;;;;;16.92;92.65;100648.22;5071037;28;20174;-74
2022/09/06 02:14:06;;;;;;;0.00;0.00;;;;;;;16.97;92.20;100635.31;5070677;28;20182;-73
2022/09/06 02:16:33;;;;;;;0.10;0.10;;;;;;;16.92;91.78;100631.66;5071361;28;20186;-73
2022/09/06 02:19:06;;;;;;;0.10;0.10;;;;;;;16.97;92.34;100640.84;5071221;28;20178;-74
2022/09/06 02:21:37;;;;;;;0.00;0.00;;;;;;;17.04;92.90;100643.78;5071265;28;20542;-73
2022/09/06 02:24:06;;;;;;;0.20;0.20;;;;;;;17.00;93.36;100646.47;5070464;28;20213;-73
2022/09/06 02:26:36;;;;;;;0.13;0.13;;;;;;;17.07;92.95;100659.66;5070885;28;20198;-73
2022/09/06 02:29:03;;;;;;;0.00;0.00;;;;;;;17.11;92.71;100661.38;5070929;28;20573;-73
2022/09/06 02:31:32;;;;;;;0.10;0.10;;;;;;;17.02;92.11;100652.44;5070832;28;20174;-74
2022/09/06 02:33:58;;;;;;;0.00;0.00;;;;;;;16.89;92.04;100659.13;5070400;28;20182;-73
2022/09/06 02:36:23;;;;;;;0.00;0.00;;;;;;;16.85;92.23;100649.94;5071156;28;20166;-74
2022/09/06 02:38:49;;;;;;;0.00;0.00;;;;;;;16.75;93.38;100642.16;5070175;28;20182;-73
2022/09/06 02:41:19;;;;;;;0.00;0.00;;;;;;;16.73;94.23;100642.50;5070557;28;20177;-73
2022/09/06 02:43:45;;;;;;;0.37;0.37;;;;;;;16.66;93.95;100629.28;5070148;28;20221;-73
2022/09/06 02:46:11;;;;;;;0.00;0.00;;;;;;;16.66;93.56;100636.75;5070617;28;20183;-74
2022/09/06 02:48:36;;;;;;;1.30;1.30;;;;;;;16.64;92.58;100628.81;5069219;28;20539;-73
2022/09/06 02:51:04;;;;;;;0.03;0.03;;;;;;;16.66;92.04;100632.03;5070558;28;20181;-73
2022/09/06 02:53:29;;;;;;;0.00;0.00;;;;;;;16.66;91.12;100634.78;5070069;28;20178;-74
2022/09/06 02:55:55;;;;;;;0.10;0.10;;;;;;;16.66;89.83;100637.53;5070365;28;20186;-73
2022/09/06 02:58:21;;;;;;;0.10;0.10;;;;;;;16.66;89.23;100640.31;5070478;28;20175;-73
2022/09/06 03:00:46;;;;;;;0.00;0.00;;;;;;;16.71;88.20;100664.13;5069060;28;20177;-74
2022/09/06 03:03:12;;;;;;;0.10;0.10;;;;;;;16.71;87.23;100664.13;5070200;28;20198;-73
2022/09/06 03:05:37;;;;;;;0.00;0.00;;;;;;;16.73;86.55;100649.97;5070078;28;20210;-74
2022/09/06 03:08:02;;;;;;;0.10;0.10;;;;;;;16.69;86.64;100658.16;5070182;28;20170;-74
2022/09/06 03:10:28;;;;;;;0.20;0.20;;;;;;;16.69;85.46;100657.34;5070235;28;20208;-73
2022/09/06 03:12:53;;;;;;;4.13;3.83;;;;;;;16.69;85.31;100654.59;5070311;28;20189;-73
2022/09/06 03:15:18;;;;;;;0.30;0.30;;;;;;;16.59;85.43;100648.34;5069802;28;20702;-73
2022/09/06 03:17:44;;;;;;;0.07;0.07;;;;;;;16.54;85.57;100656.88;5070134;28;20210;-73
2022/09/06 03:20:11;;;;;;;0.10;0.10;;;;;;;16.52;85.60;100661.94;5070218;28;20194;-73
2022/09/06 03:22:38;;;;;;;0.13;0.13;;;;;;;16.51;85.23;100665.84;5069985;28;20289;-73
2022/09/06 03:25:04;;;;;;;0.97;0.97;;;;;;;16.51;85.20;100660.31;5069845;28;20614;-74
2022/09/06 03:27:29;;;;;;;0.10;0.10;;;;;;;16.49;85.02;100657.13;5070093;28;20186;-73
2022/09/06 03:29:54;;;;;;;0.10;0.10;;;;;;;16.47;84.45;100650.31;5070101;28;20553;-73
2022/09/06 03:32:20;;;;;;;0.10;0.10;;;;;;;16.43;84.50;100644.69;5070114;28;20210;-73
2022/09/06 03:34:45;;;;;;;1.10;1.00;;;;;;;16.43;83.64;100641.94;5069729;28;20637;-73
2022/09/06 03:37:10;;;;;;;0.23;0.23;;;;;;;16.40;83.69;100642.63;5069953;28;20685;-73
2022/09/06 03:39:36;;;;;;;0.20;0.20;;;;;;;16.39;83.15;100637.47;5069539;28;20213;-73
2022/09/06 03:42:01;;;;;;;0.40;0.40;;;;;;;16.38;82.77;100642.19;5070086;28;20183;-73
2022/09/06 03:44:26;;;;;;;0.50;0.50;;;;;;;16.41;82.57;100647.00;5069690;28;20178;-73
2022/09/06 03:46:52;;;;;;;0.40;0.40;;;;;;;16.40;81.84;100650.91;5069953;28;20178;-73
2022/09/06 03:49:17;;;;;;;0.60;0.57;;;;;;;16.44;81.28;100654.56;5069828;28;20265;-73
2022/09/06 03:51:42;;;;;;;2.37;1.03;;;;;;;16.44;81.61;100660.09;5069852;28;20171;-73
2022/09/06 03:54:08;;;;;;;0.77;0.77;;;;;;;16.42;81.12;100665.16;5069761;28;20198;-73
2022/09/06 03:56:33;;;;;;;0.57;0.57;;;;;;;16.42;81.47;100667.91;5069807;28;20193;-73
2022/09/06 03:58:59;;;;;;;3.07;1.40;;;;;;;16.34;81.47;100666.06;5069841;28;20626;-73
2022/09/06 04:01:25;;;;;;;0.57;0.57;;;;;;;16.39;80.86;100673.31;5069579;28;20236;-73
2022/09/06 04:03:50;;;;;;;0.50;0.50;;;;;;;16.43;80.43;100676.97;5069304;28;20680;-73
2022/09/06 04:06:16;;;;;;;0.20;0.20;;;;;;;16.36;80.60;100675.63;5070112;28;20178;-73
2022/09/06 04:08:41;;;;;;;0.80;0.80;;;;;;;16.35;80.71;100668.50;5069725;28;20228;-73
2022/09/06 04:11:06;;;;;;;0.40;0.40;;;;;;;16.34;80.84;100663.28;5069561;28;20177;-73
2022/09/06 04:13:33;;;;;;;4.47;0.60;;;;;;;16.27;80.72;100654.81;5069501;28;20182;-73
2022/09/06 04:15:58;;;;;;;0.40;0.40;;;;;;;16.27;80.51;100663.06;5069689;28;20178;-73
2022/09/06 04:18:24;;;;;;;0.40;0.40;;;;;;;16.26;80.38;100650.44;5069407;28;20187;-73
2022/09/06 04:20:51;;;;;;;0.83;0.83;;;;;;;16.21;80.80;100654.25;5069750;28;20243;-73
2022/09/06 04:23:18;;;;;;;0.20;0.20;;;;;;;16.17;80.80;100658.00;5069431;28;20424;-73
2022/09/06 04:25:48;;;;;;;1.63;1.53;;;;;;;16.12;80.90;100661.81;5069592;28;20634;-73
2022/09/06 04:28:14;;;;;;;2.70;0.33;;;;;;;16.11;81.22;100660.19;5070791;28;20174;-74
2022/09/06 04:30:40;;;;;;;0.43;0.43;;;;;;;16.06;81.69;100664.00;5073024;28;20171;-73
2022/09/06 04:33:05;;;;;;;0.77;0.77;;;;;;;16.05;81.20;100654.09;5072941;28;20538;-73
2022/09/06 04:35:31;;;;;;;0.70;0.70;;;;;;;16.08;81.54;100652.63;5072888;28;20215;-73
2022/09/06 04:38:00;;;;;;;0.00;0.00;;;;;;;16.06;81.65;100657.69;5073290;28;20179;-73
2022/09/06 04:40:25;;;;;;;0.00;0.00;;;;;;;16.03;81.54;100645.38;5072461;28;20214;-73
2022/09/06 04:42:50;;;;;;;0.30;0.30;;;;;;;16.02;81.02;100642.94;5072701;28;20502;-73
2022/09/06 04:45:16;;;;;;;0.87;0.50;;;;;;;16.00;81.04;100642.50;5072509;28;20174;-73
2022/09/06 04:47:41;;;;;;;1.47;1.37;;;;;;;15.96;80.95;100644.34;5072819;28;20170;-73
2022/09/06 04:50:07;;;;;;;0.10;0.10;;;;;;;15.93;81.12;100637.56;5072906;28;20185;-73
2022/09/06 04:52:32;;;;;;;0.00;0.00;;;;;;;15.95;80.83;100645.47;5072664;28;20170;-73
2022/09/06 04:54:57;;;;;;;0.50;0.50;;;;;;;15.93;81.17;100643.06;5072360;28;20175;-73
2022/09/06 04:57:23;;;;;;;0.80;0.80;;;;;;;15.93;80.70;100647.78;5072646;28;20186;-74
2022/09/06 04:59:48;;;;;;;0.20;0.20;;;;;;;15.95;80.71;100642.72;5072582;28;20171;-73
2022/09/06 05:02:13;;;;;;;1.13;1.13;;;;;;;15.91;80.78;100634.34;5072448;28;20550;-73
2022/09/06 05:04:38;;;;;;;0.20;0.20;;;;;;;15.92;81.13;100632.41;5072415;28;20266;-72
2022/09/06 05:07:06;;;;;;;0.00;0.00;;;;;;;15.90;80.95;100645.69;5072425;28;20174;-73
2022/09/06 05:09:32;;;;;;;0.10;0.10;;;;;;;15.95;80.31;100643.53;5072355;28;20646;-73
2022/09/06 05:11:58;;;;;;;0.00;0.00;;;;;;;15.97;80.55;100645.94;5072795;28;20170;-73
2022/09/06 05:14:24;;;;;;;0.23;0.23;;;;;;;15.96;81.11;100656.16;5071946;28;20179;-73
2022/09/06 05:16:50;;;;;;;0.67;0.67;;;;;;;15.95;80.87;100643.53;5072466;28;20182;-74
2022/09/06 05:19:16;;;;;;;0.43;0.37;;;;;;;15.90;80.25;100632.72;5072249;28;20219;-73
2022/09/06 05:21:41;;;;;;;0.10;0.10;;;;;;;15.95;80.83;100642.72;5071816;28;20273;-73
2022/09/06 05:24:07;;;;;;;0.50;0.50;;;;;;;15.89;80.37;100647.66;5071734;28;20210;-73
2022/09/06 05:26:32;;;;;;;0.63;0.60;;;;;;;15.88;80.54;100651.53;5071974;28;20236;-73
2022/09/06 05:28:57;;;;;;;0.03;0.03;;;;;;;15.92;80.48;100658.00;5071994;28;20179;-73
2022/09/06 05:31:32;;;;;;;0.03;0.03;;;;;;;15.96;80.40;100658.91;5071915;28;20183;-73
2022/09/06 05:33:59;;;;;;;0.27;0.27;;;;;;;15.93;80.38;100658.81;5071655;28;20534;-73
2022/09/06 05:36:25;;;;;;;0.03;0.03;;;;;;;15.89;80.80;100657.84;5071870;28;20178;-73
2022/09/06 05:38:55;;;;;;;3.57;3.27;;;;;;;15.81;81.32;100648.56;5071004;28;20213;-73
2022/09/06 05:41:21;;;;;;;0.23;0.23;;;;;;;15.79;81.78;100648.09;5071684;28;20213;-73
2022/09/06 05:43:47;;;;;;;0.77;0.53;;;;;;;15.77;81.33;100644.88;5071342;28;20210;-73
2022/09/06 05:46:12;;;;;;;1.90;1.80;;;;;;;15.73;81.23;100642.00;5072033;28;20187;-72
2022/09/06 05:48:38;;;;;;;2.23;1.40;;;;;;;15.68;81.57;100635.91;5071695;28;20221;-73
2022/09/06 05:51:11;;;;;;;0.00;0.00;;;;;;;15.69;81.98;100640.28;5071566;28;20208;-73
2022/09/06 05:53:46;;;;;;;0.60;0.60;;;;;;;15.73;81.68;100644.75;5071065;28;20534;-73
2022/09/06 05:56:13;;;;;;;0.20;0.20;;;;;;;15.71;81.30;100640.72;5071361;28;20645;-73
2022/09/06 05:58:39;;;;;;;1.83;1.27;;;;;;;15.69;80.97;100638.31;5071472;28;20174;-73
2022/09/06 06:01:14;;;;;;;0.97;0.97;;;;;;;15.68;81.21;100641.41;5071441;28;20189;-73
2022/09/06 06:03:40;;;;;;;0.37;0.37;;;;;;;15.73;80.61;100630.97;5070799;28;20300;-73
2022/09/06 06:06:05;;;;;;;0.33;0.33;;;;;;;15.74;80.81;100635.34;5071192;28;20257;-73
2022/09/06 06:08:31;;;;;;;0.10;0.10;;;;;;;15.79;80.25;100645.34;5071241;28;20171;-73
2022/09/06 06:10:59;;;;;;;0.57;0.40;;;;;;;15.79;80.32;100653.63;5071226;28;20698;-73
2022/09/06 06:13:27;;;;;;;0.10;0.10;;;;;;;15.81;80.20;100651.31;5070874;28;20563;-73
2022/09/06 06:15:52;;;;;;;0.40;0.40;;;;;;;15.88;79.50;100651.53;5071399;28;20174;-73
2022/09/06 06:18:18;;;;;;;0.00;0.00;;;;;;;15.92;79.75;100660.75;5071033;28;20194;-73
2022/09/06 06:20:43;;;;;;;0.00;0.00;;;;;;;15.90;79.72;100660.28;5070793;28;20170;-73
2022/09/06 06:23:08;;;;;;;0.20;0.20;;;;;;;15.99;78.87;100668.44;5070794;28;20198;-73
2022/09/06 06:25:33;;;;;;;0.53;0.53;;;;;;;16.02;79.03;100685.09;5070899;28;20258;-74
2022/09/06 06:27:59;;;;;;;0.00;0.00;;;;;;;16.06;78.97;100680.53;5071302;28;20174;-73
2022/09/06 06:30:24;;;;;;;0.10;0.10;;;;;;;15.97;78.92;100671.56;5070931;28;20175;-73
2022/09/06 06:32:49;;;;;;;0.00;0.00;;;;;;;15.97;78.73;100676.25;5070640;28;20215;-73
2022/09/06 06:35:15;;;;;;;0.10;0.10;;;;;;;16.02;78.98;100687.06;5070447;28;20177;-73
2022/09/06 06:37:41;;;;;;;0.00;0.00;;;;;;;16.03;79.01;100694.97;5070571;28;20538;-73
2022/09/06 06:40:07;;;;;;;0.00;0.00;;;;;;;16.07;79.02;100697.88;5070451;28;20589;-74
2022/09/06 06:42:32;;;;;;;0.00;0.00;;;;;;;16.14;79.19;100697.28;5070873;28;20688;-73
2022/09/06 06:44:57;;;;;;;0.17;0.17;;;;;;;16.13;78.82;100692.94;5070268;28;20178;-73
2022/09/06 06:47:23;;;;;;;0.23;0.20;;;;;;;16.07;79.31;100684.09;5070600;28;20202;-73
2022/09/06 06:49:48;;;;;;;0.00;0.00;;;;;;;16.12;78.51;100686.63;5070524;28;20276;-73
2022/09/06 06:52:13;;;;;;;0.00;0.00;;;;;;;16.10;78.67;100693.63;5069906;28;20649;-73
2022/09/06 06:54:40;;;;;;;0.00;0.00;;;;;;;16.14;78.93;100697.28;5070263;28;20724;-74
2022/09/06 06:57:08;;;;;;;0.20;0.10;;;;;;;16.09;78.89;100695.56;5070379;28;20205;-74
2022/09/06 06:59:34;;;;;;;0.13;0.13;;;;;;;16.07;78.87;100695.13;5070556;28;20351;-73
2022/09/06 07:01:59;;;;;;;0.93;0.93;;;;;;;16.08;78.95;100693.16;5070540;28;20720;-73
2022/09/06 07:04:24;;;;;;;0.00;0.00;;;;;;;16.12;78.48;100705.09;5070109;28;20264;-73
2022/09/06 07:06:52;;;;;;;0.00;0.00;;;;;;;16.15;78.60;100710.72;5070305;28;20255;-73
2022/09/06 07:09:18;;;;;;;1.00;0.80;;;;;;;16.14;78.43;100702.81;5070312;28;20637;-74
2022/09/06 07:11:44;;;;;;;0.83;0.83;;;;;;;16.18;78.54;100699.00;5070202;28;20171;-73
2022/09/06 07:14:10;;;;;;;1.53;1.43;;;;;;;16.18;77.92;100703.72;5070025;28;20179;-73
2022/09/06 07:16:35;;;;;;;0.23;0.23;;;;;;;16.21;77.78;100708.56;5070353;28;20228;-73
2022/09/06 07:19:01;;;;;;;0.00;0.00;;;;;;;16.27;77.99;100713.50;5070294;28;20171;-73
2022/09/06 07:21:26;;;;;;;0.00;0.00;;;;;;;16.28;77.42;100711.56;5070077;28;20171;-73
2022/09/06 07:23:52;;;;;;;0.30;0.30;;;;;;;16.30;77.41;100696.28;5070107;28;20206;-73
2022/09/06 07:26:29;;;;;;;1.97;1.87;;;;;;;16.25;76.82;100691.00;5070185;28;20171;-73
2022/09/06 07:28:59;;;;;;;0.33;0.33;;;;;;;16.28;76.79;100703.28;5070074;28;20704;-73
2022/09/06 07:31:26;;;;;;;0.00;0.00;;;;;;;16.30;76.79;100710.06;5069971;28;20224;-73
2022/09/06 07:33:51;;;;;;;0.10;0.10;;;;;;;16.30;76.83;100706.50;5069933;28;20178;-74
2022/09/06 07:36:16;;;;;;;9.13;1.47;;;;;;;16.34;76.49;100701.91;5070055;28;20304;-73
2022/09/06 07:38:42;;;;;;;1.13;1.00;;;;;;;16.35;76.78;100700.78;5070367;28;20206;-73
2022/09/06 07:41:09;;;;;;;1.63;1.53;;;;;;;16.35;76.22;100696.06;5069585;28;20179;-73
2022/09/06 07:43:35;;;;;;;0.47;0.47;;;;;;;16.33;76.23;100701.09;5069353;28;20572;-73
2022/09/06 07:46:04;;;;;;;2.63;2.43;;;;;;;16.41;76.36;100701.34;5070036;28;20205;-74
2022/09/06 07:48:31;;;;;;;0.40;0.40;;;;;;;16.43;75.92;100708.13;5070089;28;20197;-73
2022/09/06 07:51:07;;;;;;;0.67;0.67;;;;;;;16.49;75.71;100709.53;5069884;28;20182;-73
2022/09/06 07:53:34;;;;;;;0.00;0.00;;;;;;;16.50;75.14;100713.88;5069524;28;20170;-73
2022/09/06 07:56:00;;;;;;;1.73;1.63;;;;;;;16.49;75.52;100698.50;5069658;28;20546;-73
2022/09/06 07:58:27;;;;;;;1.43;1.33;;;;;;;16.52;75.27;100692.28;5069868;28;20179;-73
2022/09/06 08:00:53;;;;;;;2.10;2.00;;;;;;;16.59;75.57;100698.00;5069680;28;20691;-73
2022/09/06 08:03:18;;;;;;;1.77;1.67;;;;;;;16.66;75.22;100700.19;5072472;28;20198;-73
2022/09/06 08:05:47;;;;;;;0.00;0.00;;;;;;;16.70;75.44;100709.41;5073302;28;20258;-73
2022/09/06 08:08:13;;;;;;;0.83;0.83;;;;;;;16.72;75.12;100718.16;5073426;28;20178;-73
2022/09/06 08:10:38;;;;;;;1.87;1.77;;;;;;;16.64;75.24;100713.53;5073509;28;20190;-73
2022/09/06 08:13:03;;;;;;;0.57;0.57;;;;;;;16.61;75.59;100709.50;5073332;28;20261;-73
2022/09/06 08:15:30;;;;;;;1.17;1.07;;;;;;;16.64;75.64;100719.06;5073388;28;20179;-73
2022/09/06 08:17:55;;;;;;;0.47;0.47;;;;;;;16.72;75.59;100709.88;5073718;28;20235;-73
2022/09/06 08:20:21;;;;;;;0.80;0.80;;;;;;;16.81;75.38;100701.47;5073088;28;20642;-73
2022/09/06 08:22:46;;;;;;;1.07;1.07;;;;;;;16.93;74.88;100715.25;5072844;28;20221;-73
2022/09/06 08:25:11;;;;;;;0.37;0.37;;;;;;;17.17;74.06;100703.34;5072902;28;20189;-73
2022/09/06 08:27:37;;;;;;;0.43;0.43;;;;;;;17.35;73.44;100701.09;5073231;28;20195;-73
2022/09/06 08:30:03;;;;;;;0.70;0.70;;;;;;;17.31;73.05;100701.00;5073010;28;20174;-73
2022/09/06 08:32:32;;;;;;;1.70;1.53;;;;;;;17.30;73.73;100693.06;5073078;28;20170;-72
2022/09/06 08:34:58;;;;;;;1.60;1.50;;;;;;;17.31;73.65;100697.44;5072774;28;20327;-72
2022/09/06 08:37:23;;;;;;;1.27;1.17;;;;;;;17.52;73.37;100698.88;5073200;28;20262;-72
2022/09/06 08:39:48;;;;;;;3.50;2.30;;;;;;;17.72;72.98;100708.13;5072816;28;20638;-73
2022/09/06 08:42:14;;;;;;;4.70;4.10;;;;;;;17.99;71.93;100703.72;5073087;28;20369;-73
2022/09/06 08:44:47;;;;;;;4.30;1.20;;;;;;;17.72;72.08;100697.06;5072691;28;20467;-72
2022/09/06 08:47:14;;;;;;;0.70;0.50;;;;;;;18.13;72.19;100697.75;5071408;28;20560;-73
2022/09/06 08:49:45;;;;;;;1.03;0.93;;;;;;;17.97;70.62;100692.22;5072847;28;20266;-73
2022/09/06 08:52:13;;;;;;;1.50;1.40;;;;;;;17.96;70.85;100687.03;5072693;28;20187;-72
2022/09/06 08:54:57;;;;;;;2.90;2.60;;;;;;;18.02;70.47;100680.06;5072549;28;20796;-72
2022/09/06 08:57:40;;;;;;;1.73;1.60;;;;;;;18.27;70.87;100667.69;5072708;28;20194;-72
2022/09/06 09:00:09;;;;;;;4.90;2.67;;;;;;;18.24;70.89;100671.16;5072690;28;20174;-72
2022/09/06 09:03:11;;;;;;;4.57;2.60;;;;;;;18.22;70.56;100667.94;5072656;28;20195;-73
2022/09/06 09:05:39;;;;;;;0.63;0.63;;;;;;;18.27;70.59;100673.22;5072353;28;20201;-72
2022/09/06 09:08:12;;;;;;;1.03;0.73;;;;;;;18.28;70.16;100674.00;5072277;28;20175;-72
2022/09/06 09:10:46;;;;;;;0.30;0.30;;;;;;;18.17;70.47;100684.81;5072446;28;20656;-72
2022/09/06 09:13:34;;;;;;;0.00;0.00;;;;;;;18.43;70.43;100674.00;5071779;28;20429;-73
2022/09/06 09:15:59;;;;;;;2.50;2.27;;;;;;;18.47;69.17;100684.34;5072305;28;20171;-72
2022/09/06 09:18:30;;;;;;;0.97;0.97;;;;;;;18.53;69.15;100686.50;5072125;28;20613;-73
2022/09/06 09:20:57;;;;;;;1.57;1.47;;;;;;;18.72;68.88;100683.81;5070935;28;20596;-73
2022/09/06 09:23:22;;;;;;;1.57;1.47;;;;;;;18.73;68.32;100682.63;5071989;28;20614;-73
2022/09/06 09:25:51;;;;;;;4.33;1.73;;;;;;;18.94;68.28;100679.53;5071829;28;20472;-73
2022/09/06 09:28:19;;;;;;;2.90;2.80;;;;;;;18.86;68.33;100666.72;5072193;28;20257;-72
2022/09/06 09:30:48;;;;;;;0.80;0.80;;;;;;;19.12;67.96;100668.88;5071914;28;20185;-72
2022/09/06 09:33:26;;;;;;;0.50;0.40;;;;;;;19.54;67.29;100666.19;5071826;28;20175;-72
2022/09/06 09:35:53;;;;;;;1.37;1.27;;;;;;;19.26;67.06;100663.63;5071902;28;20262;-73
2022/09/06 09:38:22;;;;;;;0.00;0.00;;;;;;;19.31;67.39;100652.22;5071998;28;20171;-74
2022/09/06 09:41:02;;;;;;;0.13;0.13;;;;;;;19.52;67.05;100645.50;5071438;28;20181;-73
2022/09/06 09:43:40;;;;;;;0.33;0.20;;;;;;;19.33;66.66;100640.78;5071633;28;20240;-73
2022/09/06 09:46:23;;;;;;;1.27;1.17;;;;;;;19.37;66.43;100630.56;5071717;28;20209;-73
2022/09/06 09:49:10;;;;;;;0.53;0.53;;;;;;;19.23;66.31;100627.50;5071562;28;20171;-73
2022/09/06 09:51:40;;;;;;;2.20;2.00;;;;;;;19.45;65.79;100625.97;5071505;28;20186;-73
2022/09/06 09:54:09;;;;;;;12.03;2.27;;;;;;;19.54;65.87;100627.38;5071172;28;20179;-73
2022/09/06 09:56:43;;;;;;;0.33;0.30;;;;;;;20.02;64.52;100627.03;5071356;28;20664;-73
2022/09/06 09:59:26;;;;;;;0.23;0.23;;;;;;;20.00;64.21;100629.38;5071414;28;20174;-73
2022/09/06 10:02:01;;;;;;;0.90;0.90;;;;;;;19.73;63.98;100618.22;5071176;28;20610;-72
2022/09/06 10:04:29;;;;;;;0.63;0.30;;;;;;;19.72;64.24;100618.59;5071109;28;20705;-73
2022/09/06 10:07:07;;;;;;;0.70;0.70;;;;;;;19.79;64.05;100632.56;5071281;28;20166;-73
2022/09/06 10:09:40;;;;;;;1.23;0.73;;;;;;;19.92;63.90;100625.66;5071248;28;20227;-73
2022/09/06 10:12:06;;;;;;;0.80;0.80;;;;;;;19.98;64.08;100626.97;5071547;28;20171;-73
2022/09/06 10:14:43;;;;;;;0.50;0.50;;;;;;;19.90;63.88;100625.22;5071074;28;20198;-73
2022/09/06 10:17:18;;;;;;;0.43;0.43;;;;;;;19.94;63.42;100611.41;5071124;28;20170;-74
2022/09/06 10:19:44;;;;;;;0.83;0.83;;;;;;;19.95;63.67;100624.91;5070979;28;20705;-73
2022/09/06 10:22:28;;;;;;;9.40;0.73;;;;;;;19.96;63.76;100626.50;5070977;28;20257;-73
2022/09/06 10:25:06;;;;;;;1.23;1.23;;;;;;;20.15;63.79;100622.88;5070282;28;20198;-73
2022/09/06 10:27:32;;;;;;;2.03;0.67;;;;;;;20.26;63.31;100626.63;5070534;28;20209;-73
2022/09/06 10:30:07;;;;;;;0.77;0.77;;;;;;;20.22;63.17;100634.09;5070792;28;20202;-73
2022/09/06 10:32:52;;;;;;;0.20;0.20;;;;;;;20.29;63.36;100634.22;5070664;28;20173;-73
2022/09/06 10:35:23;;;;;;;0.93;0.93;;;;;;;20.11;63.07;100627.59;5070521;28;20168;-73
2022/09/06 10:38:16;;;;;;;1.60;1.50;;;;;;;20.05;63.62;100621.53;5070743;28;20168;-73
2022/09/06 10:41:03;;;;;;;1.90;1.10;;;;;;;20.10;63.41;100609.31;5070467;28;20512;-73
2022/09/06 10:43:41;;;;;;;1.00;1.00;;;;;;;20.11;63.47;100611.75;5070309;28;20198;-73
2022/09/06 10:46:14;;;;;;;2.40;2.20;;;;;;;20.12;63.33;100616.13;5070630;28;20191;-73
2022/09/06 10:48:43;;;;;;;2.77;1.40;;;;;;;20.15;63.75;100607.03;5070859;28;20174;-73
2022/09/06 10:51:37;;;;;;;1.67;1.57;;;;;;;20.34;63.21;100608.09;5070427;28;20181;-73
2022/09/06 10:54:07;;;;;;;0.20;0.20;;;;;;;20.66;62.90;100614.16;5070263;28;20178;-73
2022/09/06 10:56:44;;;;;;;0.43;0.43;;;;;;;21.04;61.49;100608.31;5070350;28;20523;-73
2022/09/06 10:59:37;;;;;;;3.13;2.83;;;;;;;21.16;60.44;100609.25;5070463;28;20235;-73
2022/09/06 11:02:39;;;;;;;0.30;0.30;;;;;;;21.38;60.12;100600.78;5070305;28;20175;-73
2022/09/06 11:05:12;;;;;;;2.03;1.93;;;;;;;21.53;59.88;100598.16;5070213;28;20629;-73
2022/09/06 11:07:43;;;;;;;0.50;0.50;;;;;;;21.77;59.81;100597.59;5070379;28;20183;-73
2022/09/06 11:10:30;;;;;;;0.47;0.47;;;;;;;21.67;58.90;100589.94;5070238;28;20182;-73
2022/09/06 11:13:09;;;;;;;2.80;2.63;;;;;;;21.53;59.35;100587.84;5070296;28;20185;-72
2022/09/06 11:16:10;;;;;;;0.33;0.33;;;;;;;21.80;59.68;100590.47;5070627;28;20180;-73
2022/09/06 11:18:39;;;;;;;0.13;0.13;;;;;;;22.02;59.01;100594.25;5069927;28;20194;-73
2022/09/06 11:21:17;;;;;;;0.53;0.53;;;;;;;22.05;58.57;100582.34;5070252;28;20652;-73
2022/09/06 11:23:58;;;;;;;0.93;0.60;;;;;;;22.00;58.58;100589.06;5069891;28;20251;-73
2022/09/06 11:26:42;;;;;;;9.13;2.20;;;;;;;21.86;58.21;100575.84;5070213;28;20178;-72
2022/09/06 11:29:17;;;;;;;4.17;0.73;;;;;;;21.75;58.74;100574.13;5070216;28;20175;-73
2022/09/06 11:31:57;;;;;;;4.33;2.10;;;;;;;21.77;58.87;100563.44;5070139;28;20206;-72
2022/09/06 11:34:33;;;;;;;1.40;1.10;;;;;;;22.10;58.36;100560.53;5069840;28;20184;-72
2022/09/06 11:37:25;;;;;;;3.33;1.83;;;;;;;21.92;58.75;100562.34;5070843;28;20202;-72